Time;durP1;ratioP1;P1;durP2;ratioP2;P2;SDS_P1;SDS_P2;PMS_P1;PMS_P2;Temp;Humidity;BMP_temperature;BMP_pressure;BME280_temperature;BME280_humidity;BME280_pressure;Samples;Min_cycle;Max_cycle;Signal;HPM_P1;HPM_P2
2021/04/04 00:01:50;;;;;;;4.63;2.40;;;;;;;1.78;99.27;100816.70;232847;1203;103229;-74
2021/04/04 00:06:51;;;;;;;6.68;3.10;;;;;;;1.55;99.97;100809.64;232825;1201;103164;-74
2021/04/04 00:11:53;;;;;;;4.00;2.97;;;;;;;1.35;100.00;100815.67;233165;1202;103225;-74
2021/04/04 00:16:55;;;;;;;6.80;3.45;;;;;;;1.20;100.00;100816.48;233289;1202;103137;-73
2021/04/04 00:21:56;;;;;;;5.70;3.40;;;;;;;1.24;100.00;100825.26;232831;1203;103155;-74
2021/04/04 00:26:57;;;;;;;7.18;3.95;;;;;;;1.29;100.00;100810.39;232832;1203;103163;-74
2021/04/04 00:31:59;;;;;;;6.80;3.30;;;;;;;1.32;100.00;100820.92;233228;1203;103236;-73
2021/04/04 00:37:01;;;;;;;6.20;3.10;;;;;;;1.30;100.00;100814.78;233252;1203;103220;-73
2021/04/04 00:42:04;;;;;;;6.75;3.00;;;;;;;1.16;100.00;100817.34;232846;1201;103134;-74
2021/04/04 00:47:05;;;;;;;6.50;3.53;;;;;;;1.14;100.00;100812.93;232830;1203;103149;-73
2021/04/04 00:52:07;;;;;;;5.43;3.37;;;;;;;1.21;100.00;100817.34;233221;1203;103137;-74
2021/04/04 00:57:09;;;;;;;5.70;3.30;;;;;;;1.28;100.00;100829.64;233221;1203;103296;-75
2021/04/04 01:02:14;;;;;;;5.25;2.78;;;;;;;1.14;100.00;100831.31;232813;1202;103229;-73
2021/04/04 01:07:17;;;;;;;4.45;3.10;;;;;;;1.27;100.00;100835.77;232813;1203;103178;-74
2021/04/04 01:12:24;;;;;;;7.68;3.15;;;;;;;1.25;100.00;100832.27;233132;1203;103143;-73
2021/04/04 01:17:28;;;;;;;4.60;2.90;;;;;;;1.12;100.00;100836.56;233282;1203;103207;-73
2021/04/04 01:22:38;;;;;;;6.10;3.10;;;;;;;1.19;100.00;100837.50;232988;1203;103161;-74
2021/04/04 01:28:06;;;;;;;5.60;2.50;;;;;;;1.17;100.00;100839.22;233016;1202;103491;-72
2021/04/04 01:33:12;;;;;;;6.33;3.15;;;;;;;1.31;100.00;100832.30;233148;1203;103162;-73
2021/04/04 01:38:17;;;;;;;4.63;2.75;;;;;;;1.32;100.00;100834.06;233312;1202;103226;-74
2021/04/04 01:43:19;;;;;;;;;;;;;;;1.47;100.00;100833.24;232887;1207;103612;-73
2021/04/04 01:48:20;;;;;;;5.68;2.65;;;;;;;1.39;100.00;100834.95;232808;1203;103136;-74
2021/04/04 01:53:23;;;;;;;6.00;3.23;;;;;;;1.34;100.00;100829.67;233364;1203;103246;-73
2021/04/04 01:58:26;;;;;;;4.30;2.90;;;;;;;1.49;100.00;100833.24;233386;1203;103182;-74
2021/04/04 02:03:29;;;;;;;4.48;2.60;;;;;;;1.47;100.00;100827.98;232819;1202;103210;-73
2021/04/04 02:08:31;;;;;;;9.47;3.30;;;;;;;1.41;100.00;100838.47;233022;1203;103219;-74
2021/04/04 02:13:34;;;;;;;5.00;2.50;;;;;;;1.40;100.00;100837.61;233172;1203;103551;-74
2021/04/04 02:18:37;;;;;;;5.33;2.93;;;;;;;1.55;100.00;100838.55;233383;1203;103316;-73
2021/04/04 02:23:39;;;;;;;7.75;2.80;;;;;;;1.38;100.00;100834.09;232898;1203;103209;-73
2021/04/04 02:28:40;;;;;;;4.20;2.90;;;;;;;1.37;100.00;100832.33;232878;1202;103169;-73
2021/04/04 02:33:55;;;;;;;6.37;2.77;;;;;;;1.22;100.00;100833.14;233142;1203;103258;-73
2021/04/04 02:39:18;;;;;;;5.05;2.95;;;;;;;1.38;100.00;100833.19;233326;1203;103197;-73
2021/04/04 02:44:19;;;;;;;5.68;2.45;;;;;;;1.28;100.00;100842.78;232879;1203;103158;-73
2021/04/04 02:49:23;;;;;;;7.80;3.00;;;;;;;1.26;100.00;100840.15;232854;1203;103302;-73
2021/04/04 02:54:27;;;;;;;7.58;3.15;;;;;;;1.35;100.00;100844.56;233314;1203;103209;-73
2021/04/04 02:59:36;;;;;;;4.77;3.10;;;;;;;1.33;100.00;100841.08;233582;1202;103210;-74
2021/04/04 03:04:38;;;;;;;6.37;3.07;;;;;;;1.25;100.00;100845.41;233181;1203;103156;-73
2021/04/04 03:09:45;;;;;;;4.90;2.48;;;;;;;1.16;100.00;100843.61;232846;1203;103229;-73
2021/04/04 03:14:48;;;;;;;5.77;2.67;;;;;;;1.24;100.00;100857.64;233344;1203;103146;-74
2021/04/04 03:19:51;;;;;;;6.93;3.18;;;;;;;1.23;100.00;100853.25;234068;1202;103546;-73
2021/04/04 03:24:54;;;;;;;4.63;3.13;;;;;;;1.06;100.00;100863.66;233056;1203;103249;-73
2021/04/04 03:29:56;;;;;;;6.88;3.08;;;;;;;1.36;100.00;100867.34;233074;1202;103213;-74
2021/04/04 03:34:58;;;;;;;7.97;4.03;;;;;;;1.23;100.00;100861.13;233125;1203;103286;-73
2021/04/04 03:39:59;;;;;;;5.83;3.00;;;;;;;1.25;100.00;100862.03;233263;1203;103207;-73
2021/04/04 03:45:01;;;;;;;4.95;2.95;;;;;;;1.39;100.00;100861.22;232887;1203;103150;-72
2021/04/04 03:50:04;;;;;;;6.10;3.20;;;;;;;1.32;100.00;100864.69;232794;1203;103160;-73
2021/04/04 03:55:08;;;;;;;6.03;3.95;;;;;;;1.27;100.00;100862.03;233246;1201;103210;-73
2021/04/04 04:00:11;;;;;;;7.07;4.83;;;;;;;1.19;100.00;100869.88;233325;1201;103286;-75
2021/04/04 04:05:15;;;;;;;7.80;3.80;;;;;;;1.27;100.00;100865.55;232971;1202;103216;-74
2021/04/04 04:10:18;;;;;;;8.27;4.70;;;;;;;1.37;100.00;100873.49;233123;1203;103206;-74
2021/04/04 04:15:21;;;;;;;7.10;5.10;;;;;;;1.36;100.00;100869.97;233081;1203;104565;-73
2021/04/04 04:20:23;;;;;;;7.60;3.80;;;;;;;1.32;100.00;100880.45;233259;1203;103184;-73
2021/04/04 04:25:27;;;;;;;9.17;4.27;;;;;;;1.42;100.00;100882.27;233210;1203;103210;-71
2021/04/04 04:30:29;;;;;;;9.23;6.05;;;;;;;1.34;100.00;100883.97;232871;1203;103535;-73
2021/04/04 04:35:32;;;;;;;8.40;5.50;;;;;;;1.20;100.00;100876.89;233143;1203;103117;-72
2021/04/04 04:40:34;;;;;;;10.63;5.77;;;;;;;1.15;100.00;100878.62;233545;1203;103568;-74
2021/04/04 04:45:38;;;;;;;8.03;5.63;;;;;;;1.14;100.00;100870.70;233028;1202;103657;-75
2021/04/04 04:50:42;;;;;;;8.80;6.07;;;;;;;0.83;100.00;100866.13;232892;1203;103408;-74
2021/04/04 04:55:47;;;;;;;9.60;6.18;;;;;;;0.93;100.00;100864.44;233361;1201;103226;-74
2021/04/04 05:00:51;;;;;;;8.03;5.63;;;;;;;0.99;100.00;100872.36;233266;1202;103546;-74
2021/04/04 05:05:52;;;;;;;8.25;5.95;;;;;;;1.20;100.00;100873.40;233188;1203;103210;-73
2021/04/04 05:10:56;;;;;;;7.60;4.90;;;;;;;0.84;100.00;100872.27;232977;1202;103213;-73
2021/04/04 05:15:58;;;;;;;10.75;4.95;;;;;;;1.02;100.00;100872.39;233334;1202;103529;-73
2021/04/04 05:21:00;;;;;;;8.55;5.30;;;;;;;1.19;100.00;100885.63;233328;1203;103239;-73
2021/04/04 05:26:01;;;;;;;7.05;5.35;;;;;;;1.20;100.00;100886.53;233382;1202;103210;-74
2021/04/04 05:31:03;;;;;;;7.43;4.67;;;;;;;1.15;100.00;100888.22;233566;1203;103136;-74
2021/04/04 05:36:05;;;;;;;4.90;4.40;;;;;;;1.31;100.00;100891.81;233823;1201;103111;-75
2021/04/04 05:41:07;;;;;;;5.53;4.15;;;;;;;1.35;100.00;100901.49;234101;1203;103229;-74
2021/04/04 05:46:35;;;;;;;6.90;5.13;;;;;;;1.42;100.00;100898.90;233422;1203;103159;-73
2021/04/04 05:52:00;;;;;;;5.35;4.70;;;;;;;1.40;100.00;100905.91;233617;1203;103664;-73
2021/04/04 05:57:24;;;;;;;;;;;;;;;1.47;100.00;100911.20;233110;1203;103211;-74
2021/04/04 06:02:49;;;;;;;10.60;6.80;;;;;;;1.55;100.00;100910.36;233986;1203;103251;-76
2021/04/04 06:08:09;;;;;;;8.60;5.70;;;;;;;1.25;100.00;100905.81;233707;1202;103203;-72
2021/04/04 06:13:38;;;;;;;6.90;5.40;;;;;;;1.06;100.00;100916.17;233018;1203;103219;-73
2021/04/04 06:19:10;;;;;;;8.63;6.33;;;;;;;0.91;100.00;100922.19;232550;1176;114449;-74
2021/04/04 06:24:32;;;;;;;8.33;6.23;;;;;;;1.23;100.00;100918.05;233283;1177;114920;-71
2021/04/04 06:29:55;;;;;;;9.20;6.70;;;;;;;1.58;100.00;100920.01;233065;1176;116572;-73
2021/04/04 06:35:03;;;;;;;9.20;6.55;;;;;;;1.51;100.00;100929.63;233439;1177;114360;-72
2021/04/04 06:40:09;;;;;;;8.80;6.80;;;;;;;1.62;100.00;100927.06;233380;1176;114335;-73
2021/04/04 06:45:44;;;;;;;9.70;5.20;;;;;;;1.52;100.00;100919.98;233157;1176;114474;-73
2021/04/04 06:50:54;;;;;;;7.17;5.70;;;;;;;1.63;100.00;100925.30;232715;1177;114663;-75
2021/04/04 06:56:17;;;;;;;8.35;4.85;;;;;;;1.32;100.00;100928.63;233301;1177;114401;-73
2021/04/04 07:01:29;;;;;;;7.80;5.83;;;;;;;1.61;100.00;100925.30;233055;1176;114714;-73
2021/04/04 07:06:31;;;;;;;9.13;6.17;;;;;;;1.93;100.00;100936.84;233498;1177;114725;-73
2021/04/04 07:12:08;;;;;;;7.23;5.30;;;;;;;1.90;100.00;100937.70;233193;1176;114593;-72
2021/04/04 07:17:54;;;;;;;9.45;5.25;;;;;;;2.10;100.00;100944.79;232879;1177;114761;-71
2021/04/04 07:23:34;;;;;;;8.08;5.28;;;;;;;2.12;100.00;100950.91;233272;1177;114563;-74
2021/04/04 07:28:57;;;;;;;6.45;4.85;;;;;;;2.19;100.00;100948.33;233422;1202;103243;-73
2021/04/04 07:34:27;;;;;;;7.20;4.90;;;;;;;2.49;100.00;100946.66;233010;1202;103222;-74
2021/04/04 07:39:34;;;;;;;5.60;4.63;;;;;;;2.48;100.00;100951.91;233127;1203;103530;-74
2021/04/04 07:45:02;;;;;;;7.20;4.20;;;;;;;2.35;100.00;100962.41;233067;1202;103137;-74
2021/04/04 07:50:08;;;;;;;7.50;4.97;;;;;;;2.18;100.00;100964.98;232956;1203;103140;-75
2021/04/04 07:55:18;;;;;;;5.83;4.47;;;;;;;2.56;100.00;100955.44;233110;1202;103212;-74
2021/04/04 08:00:21;;;;;;;5.58;4.25;;;;;;;2.47;100.00;100960.67;235039;1202;103248;-73
2021/04/04 08:05:29;;;;;;;6.40;5.10;;;;;;;2.48;100.00;100958.06;233589;1203;103257;-74
2021/04/04 08:10:53;;;;;;;6.70;4.98;;;;;;;2.70;100.00;100953.70;234164;1202;103145;-73
2021/04/04 08:16:09;;;;;;;7.87;4.37;;;;;;;2.86;100.00;100944.05;236170;1202;103214;-75
2021/04/04 08:21:18;;;;;;;6.27;4.90;;;;;;;3.15;98.38;100944.95;233769;1203;103214;-75
2021/04/04 08:26:30;;;;;;;4.48;3.80;;;;;;;3.21;92.88;100950.21;233644;1203;103549;-74
2021/04/04 08:31:40;;;;;;;5.80;5.20;;;;;;;3.17;94.40;100941.44;233398;1202;103331;-74
2021/04/04 08:36:48;;;;;;;6.70;4.63;;;;;;;3.32;91.46;100931.76;233404;1202;103139;-73
2021/04/04 08:41:50;;;;;;;5.38;4.88;;;;;;;3.31;92.97;100925.59;233399;1203;103494;-73
2021/04/04 08:47:17;;;;;;;9.97;5.87;;;;;;;3.49;93.08;100913.27;233029;1202;103177;-73
2021/04/04 08:52:29;;;;;;;5.83;4.38;;;;;;;3.68;89.58;100922.02;232990;1203;103261;-74
2021/04/04 08:57:41;;;;;;;6.67;4.63;;;;;;;3.70;89.20;100901.77;233038;1202;103171;-74
2021/04/04 09:03:13;;;;;;;4.05;2.98;;;;;;;4.12;82.69;100902.47;232939;1203;103124;-75
2021/04/04 09:08:15;;;;;;;3.95;3.15;;;;;;;4.32;78.79;100896.22;232951;1202;103169;-74
2021/04/04 09:13:18;;;;;;;4.80;3.70;;;;;;;4.55;78.28;100898.70;232901;1202;103242;-73
2021/04/04 09:18:21;;;;;;;3.23;2.60;;;;;;;4.58;74.44;100892.52;233038;1203;103213;-74
2021/04/04 09:23:27;;;;;;;3.40;2.50;;;;;;;4.92;73.44;100908.09;232956;1203;103139;-74
2021/04/04 09:28:31;;;;;;;2.50;2.13;;;;;;;4.93;74.52;100894.00;232891;1203;103152;-73
2021/04/04 09:33:35;;;;;;;3.43;1.80;;;;;;;4.73;73.60;100897.69;232903;1203;103565;-74
2021/04/04 09:38:40;;;;;;;3.33;2.40;;;;;;;4.73;73.71;100886.23;233022;1203;103661;-73
2021/04/04 09:43:58;;;;;;;;;;;;;;;5.09;74.59;100881.52;232914;1209;103552;-74
2021/04/04 09:49:00;;;;;;;1.70;1.28;;;;;;;5.26;68.88;100882.25;232898;1202;103549;-74
2021/04/04 09:54:01;;;;;;;1.30;1.20;;;;;;;5.37;68.12;100878.59;232889;1203;103235;-73
2021/04/04 09:59:03;;;;;;;3.90;1.20;;;;;;;5.29;69.48;100870.76;232873;1203;104020;-74
2021/04/04 10:04:07;;;;;;;2.50;1.10;;;;;;;5.81;68.08;100860.48;232863;1202;103289;-73
2021/04/04 10:09:13;;;;;;;1.15;0.90;;;;;;;5.57;66.00;100862.52;232936;1202;103170;-74
2021/04/04 10:14:19;;;;;;;1.05;0.73;;;;;;;5.65;67.17;100854.48;232954;1201;104208;-74
2021/04/04 10:19:20;;;;;;;1.75;0.90;;;;;;;5.47;69.62;100843.23;232977;1203;103143;-74
2021/04/04 10:24:31;;;;;;;1.13;0.80;;;;;;;5.22;67.89;100846.14;232984;1203;103498;-74
2021/04/04 10:29:33;;;;;;;1.17;0.80;;;;;;;5.67;65.87;100839.47;232866;1203;103219;-75
2021/04/04 10:34:42;;;;;;;1.30;0.90;;;;;;;5.82;55.03;100833.09;232869;1203;103581;-74
2021/04/04 10:39:43;;;;;;;1.00;0.80;;;;;;;6.29;56.70;100834.25;233284;1202;103209;-73
2021/04/04 10:44:45;;;;;;;1.45;1.20;;;;;;;6.06;58.34;100826.65;232898;1203;103146;-77
2021/04/04 10:49:50;;;;;;;3.25;1.80;;;;;;;6.14;57.06;100818.58;233751;1203;103150;-71
2021/04/04 10:54:53;;;;;;;2.03;1.43;;;;;;;6.59;54.33;100804.63;233465;1203;103110;-71
2021/04/04 10:59:56;;;;;;;2.53;1.65;;;;;;;6.85;55.48;100802.39;233035;1176;114901;-74
2021/04/04 11:04:58;;;;;;;2.75;2.25;;;;;;;6.97;55.27;100803.09;232969;1176;114495;-73
2021/04/04 11:10:01;;;;;;;1.70;1.00;;;;;;;7.13;47.27;100799.23;233654;1177;114492;-72
2021/04/04 11:15:10;;;;;;;1.30;1.10;;;;;;;7.37;44.80;100786.40;232886;1177;114127;-73
2021/04/04 11:20:16;;;;;;;3.20;1.80;;;;;;;7.79;46.38;100783.73;232368;1176;114518;-72
2021/04/04 11:25:18;;;;;;;3.20;1.50;;;;;;;8.08;45.02;100776.89;232674;1170;114615;-73
2021/04/04 11:30:29;;;;;;;2.47;1.70;;;;;;;8.40;45.10;100777.88;232599;1176;114194;-72
2021/04/04 11:36:08;;;;;;;2.20;1.58;;;;;;;9.03;43.70;100759.44;232412;1176;114290;-72
2021/04/04 11:41:20;;;;;;;2.30;1.20;;;;;;;8.71;42.22;100753.22;232628;1176;114745;-76
2021/04/04 11:46:40;;;;;;;1.68;0.78;;;;;;;8.73;39.40;100748.74;232723;1177;114792;-72
2021/04/04 11:51:41;;;;;;;2.57;1.30;;;;;;;7.34;42.38;100736.95;233073;1177;115298;-72
2021/04/04 11:56:49;;;;;;;1.48;1.08;;;;;;;8.61;38.86;100733.98;232531;1177;114658;-73
2021/04/04 12:01:51;;;;;;;1.38;1.10;;;;;;;10.59;35.86;100719.13;232695;1176;114541;-72
2021/04/04 12:07:06;;;;;;;1.80;1.27;;;;;;;12.37;29.93;100717.68;232449;1177;115072;-73
2021/04/04 12:12:08;;;;;;;1.70;1.10;;;;;;;11.95;31.31;100689.11;232367;1177;115254;-72
2021/04/04 12:17:10;;;;;;;1.20;0.80;;;;;;;11.09;33.18;100677.34;232538;1176;114823;-71
2021/04/04 12:22:16;;;;;;;1.30;1.10;;;;;;;10.11;33.42;100667.45;232402;1177;114697;-72
2021/04/04 12:27:19;;;;;;;1.20;1.00;;;;;;;8.11;36.39;100667.93;232431;1176;115068;-72
2021/04/04 12:32:34;;;;;;;1.65;1.18;;;;;;;12.67;31.65;100649.59;232460;1177;114743;-73
2021/04/04 12:37:38;;;;;;;1.80;1.70;;;;;;;8.71;36.62;100649.56;232524;1177;114916;-72
2021/04/04 12:42:40;;;;;;;2.05;0.90;;;;;;;8.13;38.38;100646.67;232535;1177;114695;-72
2021/04/04 12:47:43;;;;;;;1.60;1.10;;;;;;;8.93;38.29;100641.83;232410;1177;114381;-71
2021/04/04 12:52:48;;;;;;;2.10;1.10;;;;;;;9.49;34.48;100641.95;232823;1177;114514;-73
2021/04/04 12:57:56;;;;;;;1.07;0.87;;;;;;;9.79;34.88;100633.91;232358;1177;114404;-71
2021/04/04 13:03:05;;;;;;;1.53;1.10;;;;;;;8.61;37.34;100626.80;232520;1177;114378;-74
2021/04/04 13:08:19;;;;;;;1.13;1.00;;;;;;;9.45;36.40;100608.36;232451;1177;114439;-71
2021/04/04 13:13:22;;;;;;;1.70;1.05;;;;;;;9.52;35.71;100609.91;232475;1177;114373;-74
2021/04/04 13:18:39;;;;;;;1.35;0.85;;;;;;;11.47;32.79;100609.14;232904;1177;114479;-75
2021/04/04 13:23:44;;;;;;;1.45;0.80;;;;;;;13.15;30.35;100597.42;233301;1177;114954;-75
2021/04/04 13:28:56;;;;;;;1.20;1.10;;;;;;;9.19;35.41;100594.09;233358;1176;114853;-74
2021/04/04 13:34:10;;;;;;;1.10;1.00;;;;;;;9.93;35.22;100588.16;233296;1177;114784;-73
2021/04/04 13:39:15;;;;;;;2.23;1.57;;;;;;;8.21;38.20;100585.38;233106;1177;114359;-73
2021/04/04 13:44:20;;;;;;;2.48;1.75;;;;;;;7.92;39.63;100579.05;232724;1176;114683;-73
2021/04/04 13:49:36;;;;;;;2.73;1.60;;;;;;;7.98;40.20;100573.58;233417;1176;114364;-73
2021/04/04 13:54:38;;;;;;;1.20;1.10;;;;;;;11.95;32.88;100559.09;233078;1177;114334;-73
2021/04/04 13:59:48;;;;;;;1.70;1.10;;;;;;;13.28;31.82;100559.34;233109;1176;115034;-75
2021/04/04 14:04:50;;;;;;;1.00;0.80;;;;;;;12.91;30.92;100554.81;233530;1177;114424;-73
2021/04/04 14:09:52;;;;;;;1.20;0.83;;;;;;;12.48;31.21;100547.92;233187;1176;115121;-74
2021/04/04 14:14:53;;;;;;;2.15;1.13;;;;;;;11.82;32.12;100544.53;233311;1176;114571;-75
2021/04/04 14:19:55;;;;;;;4.27;1.33;;;;;;;10.82;34.15;100544.12;233128;1177;114633;-72
2021/04/04 14:24:58;;;;;;;2.17;1.50;;;;;;;11.08;35.37;100529.77;232466;1177;114696;-73
2021/04/04 14:30:00;;;;;;;1.60;1.10;;;;;;;9.02;38.32;100536.12;233146;1176;114706;-74
2021/04/04 14:35:01;;;;;;;1.20;0.80;;;;;;;9.80;34.93;100540.66;233524;1176;114901;-72
2021/04/04 14:40:03;;;;;;;2.03;1.10;;;;;;;8.69;38.95;100530.93;232797;1176;114653;-75
2021/04/04 14:45:06;;;;;;;1.73;1.07;;;;;;;8.22;39.76;100528.70;233282;1177;114788;-73
2021/04/04 14:50:08;;;;;;;1.20;0.85;;;;;;;7.99;42.33;100516.92;233669;1176;114546;-73
2021/04/04 14:55:10;;;;;;;1.80;1.33;;;;;;;7.49;43.26;100512.91;233507;1177;114622;-73
2021/04/04 15:00:12;;;;;;;2.80;1.40;;;;;;;7.22;43.82;100516.25;233514;1176;114587;-73
2021/04/04 15:05:13;;;;;;;2.85;1.25;;;;;;;8.54;39.89;100498.58;233555;1176;114107;-73
2021/04/04 15:10:15;;;;;;;2.45;1.30;;;;;;;10.22;37.92;100499.22;233455;1176;114031;-75
2021/04/04 15:15:16;;;;;;;1.80;1.45;;;;;;;10.27;36.79;100489.28;233384;1177;114778;-73
2021/04/04 15:20:18;;;;;;;1.60;0.87;;;;;;;9.69;35.86;100487.80;233330;1177;114558;-74
2021/04/04 15:25:22;;;;;;;1.93;1.00;;;;;;;9.06;37.36;100490.77;233235;1176;114723;-75
2021/04/04 15:30:32;;;;;;;3.15;2.10;;;;;;;9.30;38.66;100472.28;233582;1176;114252;-73
2021/04/04 15:35:42;;;;;;;3.55;1.70;;;;;;;9.38;37.76;100464.88;233428;1170;114427;-73
2021/04/04 15:40:45;;;;;;;3.28;2.20;;;;;;;9.34;37.46;100462.41;232565;1177;114452;-74
2021/04/04 15:45:47;;;;;;;2.90;1.40;;;;;;;8.87;39.18;100463.90;232441;1177;114370;-72
2021/04/04 15:50:49;;;;;;;3.95;2.35;;;;;;;8.92;39.54;100455.78;233338;1176;114419;-73
2021/04/04 15:55:50;;;;;;;2.50;1.78;;;;;;;8.90;39.12;100441.66;232955;1176;115488;-73
2021/04/04 16:00:52;;;;;;;3.90;1.83;;;;;;;8.38;40.33;100422.88;232493;1177;114622;-72
2021/04/04 16:05:54;;;;;;;2.20;1.85;;;;;;;8.23;40.73;100425.08;232448;1177;114730;-71
2021/04/04 16:11:03;;;;;;;4.57;2.67;;;;;;;8.14;41.62;100410.30;232863;1176;114469;-71
2021/04/04 16:16:05;;;;;;;2.70;1.70;;;;;;;8.14;40.79;100417.38;232947;1176;114421;-74
2021/04/04 16:21:07;;;;;;;1.80;1.60;;;;;;;8.33;40.46;100401.77;233055;1176;114486;-73
2021/04/04 16:26:08;;;;;;;2.20;1.80;;;;;;;8.10;41.16;100392.73;232693;1176;114371;-72
2021/04/04 16:31:10;;;;;;;2.30;1.80;;;;;;;7.50;42.68;100399.73;232811;1176;114556;-72
2021/04/04 16:36:12;;;;;;;2.55;1.85;;;;;;;7.32;43.55;100387.84;232791;1176;114441;-73
2021/04/04 16:41:13;;;;;;;2.80;1.83;;;;;;;7.32;44.40;100388.70;232784;1177;114621;-73
2021/04/04 16:46:14;;;;;;;4.10;2.00;;;;;;;7.33;43.64;100381.59;232665;1177;114434;-73
2021/04/04 16:51:16;;;;;;;1.90;1.63;;;;;;;6.89;44.31;100383.64;232712;1176;114793;-74
2021/04/04 16:56:17;;;;;;;3.67;2.00;;;;;;;6.76;45.88;100373.36;232786;1176;114371;-73
2021/04/04 17:01:19;;;;;;;5.80;5.18;;;;;;;6.68;47.24;100367.38;232507;1176;114187;-72
2021/04/04 17:06:21;;;;;;;4.95;3.98;;;;;;;6.57;47.44;100366.73;232412;1176;114834;-72
2021/04/04 17:11:22;;;;;;;5.00;3.57;;;;;;;6.40;48.30;100369.78;233277;1176;114712;-73
2021/04/04 17:16:24;;;;;;;4.33;3.00;;;;;;;6.28;48.04;100365.64;233050;1176;114642;-72
2021/04/04 17:21:25;;;;;;;4.70;3.57;;;;;;;6.18;47.71;100360.57;232818;1176;114147;-72
2021/04/04 17:26:27;;;;;;;4.70;3.00;;;;;;;6.10;48.49;100357.22;232651;1177;114192;-71
2021/04/04 17:31:28;;;;;;;5.20;3.00;;;;;;;5.90;49.62;100345.27;233009;1176;115422;-72
2021/04/04 17:36:30;;;;;;;4.80;3.63;;;;;;;6.00;47.44;100345.97;232581;1176;114196;-74
2021/04/04 17:41:32;;;;;;;6.90;4.03;;;;;;;5.97;47.34;100345.98;232480;1176;114207;-73
2021/04/04 17:46:34;;;;;;;5.50;4.75;;;;;;;5.88;48.00;100336.48;232580;1177;114286;-72
2021/04/04 17:51:35;;;;;;;7.40;5.10;;;;;;;5.75;48.71;100327.07;232476;1176;114688;-71
2021/04/04 17:56:37;;;;;;;7.60;5.07;;;;;;;5.69;48.16;100321.91;232531;1177;114419;-72
2021/04/04 18:01:38;;;;;;;8.07;5.60;;;;;;;5.63;48.99;100324.69;232750;1177;114290;-73
2021/04/04 18:06:44;;;;;;;5.95;5.03;;;;;;;5.54;48.98;100323.97;232443;1176;114695;-69
2021/04/04 18:11:45;;;;;;;7.63;5.70;;;;;;;5.48;49.22;100316.16;232592;1177;114670;-74
2021/04/04 18:16:47;;;;;;;7.80;4.97;;;;;;;5.39;49.22;100327.77;232788;1176;114337;-72
2021/04/04 18:21:48;;;;;;;9.83;6.53;;;;;;;5.37;49.76;100320.78;232696;1176;114344;-72
2021/04/04 18:26:50;;;;;;;13.05;8.85;;;;;;;5.29;50.70;100312.16;232961;1176;114169;-72
2021/04/04 18:31:51;;;;;;;8.53;6.87;;;;;;;5.13;50.82;100307.16;233532;1177;114572;-72
2021/04/04 18:36:53;;;;;;;10.80;7.10;;;;;;;5.10;51.21;100293.98;236537;1176;114377;-73
2021/04/04 18:41:54;;;;;;;11.48;8.60;;;;;;;5.02;51.83;100285.33;235528;1176;114664;-74
2021/04/04 18:46:56;;;;;;;9.00;6.83;;;;;;;4.85;51.65;100289.18;234450;1177;115712;-74
2021/04/04 18:51:57;;;;;;;15.30;9.15;;;;;;;4.77;52.91;100291.94;233603;1177;114594;-73
2021/04/04 18:56:59;;;;;;;13.58;9.65;;;;;;;4.71;53.13;100280.63;232828;1177;114642;-72
2021/04/04 19:02:00;;;;;;;11.60;8.43;;;;;;;4.54;53.06;100279.14;232847;1177;114627;-73
2021/04/04 19:07:02;;;;;;;11.30;8.60;;;;;;;4.47;53.20;100272.22;233649;1176;114653;-72
2021/04/04 19:12:06;;;;;;;11.50;7.67;;;;;;;4.41;53.25;100267.05;232999;1176;114400;-73
2021/04/04 19:17:08;;;;;;;18.13;12.07;;;;;;;4.30;54.58;100259.30;232750;1176;114444;-75
2021/04/04 19:22:09;;;;;;;14.00;8.93;;;;;;;4.28;54.96;100254.06;232659;1176;114981;-73
2021/04/04 19:27:11;;;;;;;10.55;7.60;;;;;;;4.19;54.59;100246.28;232951;1177;114453;-74
2021/04/04 19:32:13;;;;;;;10.53;7.70;;;;;;;4.12;54.51;100244.64;233006;1177;114582;-73
2021/04/04 19:37:14;;;;;;;12.63;8.17;;;;;;;4.06;55.54;100239.47;232707;1176;114458;-72
2021/04/04 19:42:18;;;;;;;11.95;8.85;;;;;;;3.97;55.90;100230.80;232466;1170;114520;-73
2021/04/04 19:47:19;;;;;;;9.13;7.53;;;;;;;3.97;55.65;100222.02;232631;1177;114733;-73
2021/04/04 19:52:20;;;;;;;10.08;7.83;;;;;;;3.82;56.48;100215.20;232962;1176;114171;-73
2021/04/04 19:57:23;;;;;;;10.97;8.30;;;;;;;3.83;56.33;100206.40;233210;1176;114553;-73
2021/04/04 20:02:25;;;;;;;10.85;8.35;;;;;;;3.78;57.48;100200.33;233572;1177;114778;-74
2021/04/04 20:07:26;;;;;;;12.53;8.23;;;;;;;3.71;58.11;100191.63;233254;1177;114308;-72
2021/04/04 20:12:27;;;;;;;11.85;7.80;;;;;;;3.72;58.02;100187.25;233164;1177;114615;-74
2021/04/04 20:17:29;;;;;;;8.53;7.23;;;;;;;3.66;58.63;100175.02;233466;1177;114346;-72
2021/04/04 20:22:30;;;;;;;12.03;7.43;;;;;;;3.65;58.37;100174.16;233136;1177;114112;-73
2021/04/04 20:27:32;;;;;;;8.73;7.30;;;;;;;3.64;59.02;100166.25;232428;1177;114890;-73
2021/04/04 20:32:34;;;;;;;10.70;7.20;;;;;;;3.58;59.57;100158.44;232539;1176;114312;-71
2021/04/04 20:37:35;;;;;;;10.93;7.43;;;;;;;3.54;59.71;100156.76;233389;1177;114539;-72
2021/04/04 20:42:37;;;;;;;12.83;7.00;;;;;;;3.50;60.42;100148.02;232700;1176;114755;-72
2021/04/04 20:47:38;;;;;;;11.13;7.08;;;;;;;3.48;60.52;100137.52;232383;1176;114783;-71
2021/04/04 20:52:40;;;;;;;8.50;6.40;;;;;;;3.46;60.88;100143.67;232404;1177;114538;-71
2021/04/04 20:57:42;;;;;;;7.90;6.70;;;;;;;3.45;61.18;100123.52;232060;1176;114819;-71
2021/04/04 21:02:44;;;;;;;9.80;7.08;;;;;;;3.39;62.04;100121.83;232208;1176;114667;-70
2021/04/04 21:07:45;;;;;;;12.18;7.18;;;;;;;3.40;62.57;100113.03;232377;1176;114312;-70
2021/04/04 21:12:47;;;;;;;10.57;6.70;;;;;;;3.34;62.98;100102.59;232303;1177;114386;-71
2021/04/04 21:17:48;;;;;;;10.60;6.93;;;;;;;3.34;62.80;100094.69;232145;1177;154896;-72
2021/04/04 21:22:54;;;;;;;8.87;5.87;;;;;;;3.29;62.85;100089.48;232300;1177;114857;-70
2021/04/04 21:27:55;;;;;;;10.23;6.53;;;;;;;3.25;63.00;100079.86;232280;1177;114418;-72
2021/04/04 21:32:57;;;;;;;10.80;6.67;;;;;;;3.22;63.77;100074.66;232283;1177;114490;-73
2021/04/04 21:38:01;;;;;;;10.43;5.47;;;;;;;3.24;63.01;100064.98;232320;1170;114800;-74
2021/04/04 21:43:02;;;;;;;8.27;6.57;;;;;;;3.22;63.58;100050.95;232780;1177;114365;-72
2021/04/04 21:48:04;;;;;;;8.65;6.15;;;;;;;3.19;64.13;100045.72;232927;1177;115386;-72
2021/04/04 21:53:06;;;;;;;12.90;7.00;;;;;;;3.11;64.52;100034.42;232048;1176;114512;-71
2021/04/04 21:58:07;;;;;;;8.73;5.68;;;;;;;3.11;64.12;100021.25;232380;1177;114491;-71
2021/04/04 22:03:09;;;;;;;10.20;6.40;;;;;;;3.09;64.32;100015.16;232757;1177;114227;-73
2021/04/04 22:08:11;;;;;;;9.98;6.98;;;;;;;3.10;64.92;99987.94;232924;1176;114490;-72
2021/04/04 22:13:16;;;;;;;7.60;5.73;;;;;;;3.10;64.53;99982.67;232389;1177;114797;-72
2021/04/04 22:18:18;;;;;;;11.70;7.40;;;;;;;3.09;65.47;99983.55;233108;1177;114562;-72
2021/04/04 22:23:20;;;;;;;9.23;5.93;;;;;;;3.08;65.35;99968.64;232374;1176;114174;-73
2021/04/04 22:28:21;;;;;;;9.60;6.40;;;;;;;3.03;65.35;99961.67;232301;1177;114288;-72
2021/04/04 22:33:23;;;;;;;8.30;5.90;;;;;;;3.00;65.26;99951.20;232654;1177;114082;-71
2021/04/04 22:38:24;;;;;;;7.30;5.37;;;;;;;3.00;65.51;99945.94;232665;1177;113814;-72
2021/04/04 22:43:26;;;;;;;9.30;6.03;;;;;;;3.01;65.36;99941.52;232802;1203;103310;-73
2021/04/04 22:48:27;;;;;;;8.28;7.18;;;;;;;2.98;66.42;99929.28;232779;1203;103148;-74
2021/04/04 22:53:29;;;;;;;10.80;7.73;;;;;;;2.99;66.01;99917.86;233531;1203;103198;-72
2021/04/04 22:58:30;;;;;;;8.30;6.20;;;;;;;2.99;66.38;99915.22;233301;1201;103229;-74
2021/04/04 23:03:32;;;;;;;11.75;7.88;;;;;;;3.01;66.16;99905.55;233588;1203;103216;-73
2021/04/04 23:08:33;;;;;;;10.70;6.70;;;;;;;2.95;66.60;99881.95;232742;1202;103628;-73
2021/04/04 23:13:38;;;;;;;9.93;6.70;;;;;;;2.98;66.03;99878.39;232807;1203;103245;-73
2021/04/04 23:18:39;;;;;;;9.00;6.50;;;;;;;2.92;66.83;99871.45;232731;1201;103173;-73